createdAt,value
2019-03-27T00:01:58.500Z,21.40
2019-03-27T00:04:29.016Z,23.30
2019-03-27T00:06:59.659Z,20.67
2019-03-27T00:09:30.360Z,23.13
2019-03-27T00:12:01.032Z,20.10
2019-03-27T00:14:32.230Z,23.77
2019-03-27T00:17:02.856Z,30.40
2019-03-27T00:19:33.227Z,19.43
2019-03-27T00:22:03.920Z,19.63
2019-03-27T00:24:34.143Z,26.70
2019-03-27T00:27:04.698Z,19.20
2019-03-27T00:29:35.453Z,28.73
2019-03-27T00:32:05.843Z,20.10
2019-03-27T00:34:36.176Z,21.90
2019-03-27T00:37:07.172Z,22.30
2019-03-27T00:39:37.457Z,27.63
2019-03-27T00:42:07.843Z,24.83
2019-03-27T00:44:38.168Z,18.00
2019-03-27T00:47:08.705Z,27.60
2019-03-27T00:49:39.111Z,23.80
2019-03-27T00:52:09.954Z,22.67
2019-03-27T00:54:40.305Z,19.70
2019-03-27T00:57:11.127Z,22.23
2019-03-27T00:59:41.573Z,18.37
2019-03-27T01:02:12.335Z,20.47
2019-03-27T01:04:42.992Z,24.17
2019-03-27T01:07:13.450Z,20.57
2019-03-27T01:09:44.184Z,25.77
2019-03-27T01:12:14.579Z,24.73
2019-03-27T01:14:44.942Z,28.97
2019-03-27T01:17:15.443Z,24.83
2019-03-27T01:19:46.099Z,33.20
2019-03-27T01:22:16.697Z,26.73
2019-03-27T01:24:47.478Z,36.93
2019-03-27T01:27:17.726Z,29.97
2019-03-27T01:29:48.121Z,23.60
2019-03-27T01:32:18.531Z,23.80
2019-03-27T01:34:49.440Z,29.03
2019-03-27T01:37:19.823Z,26.30
2019-03-27T01:39:50.277Z,23.47
2019-03-27T01:42:21.190Z,27.67
2019-03-27T01:44:51.618Z,36.13
2019-03-27T01:47:22.420Z,32.97
2019-03-27T01:49:52.817Z,23.90
2019-03-27T01:52:23.282Z,26.70
2019-03-27T01:54:53.931Z,32.33
2019-03-27T01:57:24.296Z,33.27
2019-03-27T01:59:54.876Z,28.87
2019-03-27T02:02:25.555Z,26.67
2019-03-27T02:04:56.014Z,34.00
2019-03-27T02:07:26.277Z,26.67
2019-03-27T02:09:57.891Z,24.07
2019-03-27T02:12:28.285Z,31.30
2019-03-27T02:14:58.855Z,32.27
2019-03-27T02:17:29.115Z,34.13
2019-03-27T02:19:59.483Z,32.30
2019-03-27T02:22:29.822Z,27.60
2019-03-27T02:25:00.677Z,30.87
2019-03-27T02:27:31.049Z,29.73
2019-03-27T02:30:01.496Z,31.97
2019-03-27T02:32:32.114Z,32.97
2019-03-27T02:35:02.872Z,31.33
2019-03-27T02:37:33.560Z,32.67
2019-03-27T02:40:04.029Z,37.03
2019-03-27T02:42:34.318Z,35.00
2019-03-27T02:45:05.079Z,39.87
2019-03-27T02:47:35.978Z,32.47
2019-03-27T02:50:06.745Z,33.53
2019-03-27T02:52:37.170Z,32.80
2019-03-27T02:55:08.027Z,35.47
2019-03-27T02:57:38.437Z,35.63
2019-03-27T03:00:10.246Z,33.07
2019-03-27T03:02:41.034Z,42.20
2019-03-27T03:05:11.481Z,46.90
2019-03-27T03:07:42.540Z,38.77
2019-03-27T03:10:13.649Z,36.07
2019-03-27T03:12:44.228Z,32.87
2019-03-27T03:15:19.997Z,42.20
2019-03-27T03:17:50.408Z,48.13
2019-03-27T03:20:21.374Z,36.20
2019-03-27T03:22:52.232Z,43.83
2019-03-27T03:25:22.740Z,53.30
2019-03-27T03:27:53.435Z,44.77
2019-03-27T03:30:24.222Z,41.13
2019-03-27T03:32:54.640Z,39.37
2019-03-27T03:35:25.449Z,43.87
2019-03-27T03:37:56.194Z,47.70
2019-03-27T03:40:26.633Z,41.27
2019-03-27T03:42:57.020Z,42.33
2019-03-27T03:45:27.614Z,45.63
2019-03-27T03:47:58.124Z,47.97
2019-03-27T03:50:39.060Z,45.23
2019-03-27T03:53:11.689Z,41.27
2019-03-27T03:55:43.049Z,41.37
2019-03-27T03:58:15.532Z,53.37
2019-03-27T04:00:47.507Z,45.90
2019-03-27T04:03:18.191Z,46.90
2019-03-27T04:05:48.566Z,61.73
2019-03-27T04:08:19.322Z,49.27
2019-03-27T04:10:49.849Z,51.27
2019-03-27T04:13:20.693Z,54.87
2019-03-27T04:15:51.157Z,48.43
2019-03-27T04:18:22.214Z,57.90
2019-03-27T04:20:53.882Z,43.17
2019-03-27T04:23:25.040Z,41.67
2019-03-27T04:26:08.835Z,43.50
2019-03-27T04:28:27.624Z,44.40
2019-03-27T04:30:57.898Z,43.90
2019-03-27T04:33:28.241Z,33.93
2019-03-27T04:35:59.020Z,49.50
2019-03-27T04:38:29.586Z,33.97
2019-03-27T04:41:00.154Z,32.93
2019-03-27T04:43:30.663Z,38.53
2019-03-27T04:46:01.513Z,40.83
2019-03-27T04:48:31.876Z,34.63
2019-03-27T04:51:02.216Z,43.03
2019-03-27T04:53:33.169Z,39.60
2019-03-27T04:56:03.792Z,40.73
2019-03-27T04:58:34.746Z,36.47
2019-03-27T05:01:05.504Z,45.97
2019-03-27T05:03:36.286Z,37.47
2019-03-27T05:06:06.804Z,30.80
2019-03-27T05:08:37.282Z,40.10
2019-03-27T05:11:07.660Z,49.97
2019-03-27T05:13:38.286Z,36.57
2019-03-27T05:16:08.708Z,50.20
2019-03-27T05:18:39.416Z,47.97
2019-03-27T05:21:09.857Z,35.33
2019-03-27T05:23:40.292Z,52.40
2019-03-27T05:26:10.934Z,39.80
2019-03-27T05:28:41.557Z,56.40
2019-03-27T05:31:11.778Z,50.33
2019-03-27T05:33:43.527Z,37.97
2019-03-27T05:36:14.134Z,51.43
2019-03-27T05:38:44.594Z,41.00
2019-03-27T05:41:15.060Z,41.77
2019-03-27T05:43:46.072Z,44.13
2019-03-27T05:46:17.008Z,48.93
2019-03-27T05:48:47.747Z,44.30
2019-03-27T05:51:18.215Z,45.33
2019-03-27T05:53:48.884Z,44.77
2019-03-27T05:56:19.699Z,37.57
2019-03-27T05:58:50.060Z,46.50
2019-03-27T06:01:20.352Z,42.97
2019-03-27T06:03:51.121Z,48.77
2019-03-27T06:06:21.522Z,44.63
2019-03-27T06:08:52.250Z,47.57
2019-03-27T06:11:23.172Z,40.20
2019-03-27T06:13:53.692Z,38.77
2019-03-27T06:16:24.152Z,40.77
2019-03-27T06:18:54.559Z,36.43
2019-03-27T06:21:25.602Z,50.67
2019-03-27T06:23:56.190Z,41.83
2019-03-27T06:26:27.161Z,44.03
2019-03-27T06:28:58.721Z,40.90
2019-03-27T06:31:29.759Z,41.90
2019-03-27T06:34:00.916Z,42.40
2019-03-27T06:36:31.661Z,47.80
2019-03-27T06:39:02.480Z,41.50
2019-03-27T06:41:33.288Z,34.97
2019-03-27T06:44:03.684Z,34.87
2019-03-27T06:46:34.779Z,41.27
2019-03-27T06:49:06.638Z,39.13
2019-03-27T06:51:40.404Z,42.07
2019-03-27T06:54:09.836Z,44.03
2019-03-27T06:56:40.287Z,36.90
2019-03-27T06:59:11.024Z,43.87
2019-03-27T07:01:41.707Z,33.07
2019-03-27T07:04:12.423Z,51.50
2019-03-27T07:06:42.891Z,36.03
2019-03-27T07:09:14.021Z,38.53
2019-03-27T07:11:45.112Z,41.13
2019-03-27T07:16:44.723Z,41.00
2019-03-27T07:19:15.335Z,33.90
2019-03-27T07:21:46.614Z,38.83
2019-03-27T07:24:17.512Z,32.50
2019-03-27T07:26:48.034Z,40.13
2019-03-27T07:31:49.754Z,34.67
2019-03-27T07:36:49.516Z,37.60
2019-03-27T07:41:49.426Z,27.45
2019-03-27T07:44:20.950Z,25.05
2019-03-27T07:51:50.919Z,28.70
2019-03-27T07:54:21.869Z,29.17
2019-03-27T07:56:52.591Z,37.63
2019-03-27T07:59:22.792Z,32.23
2019-03-27T08:01:53.682Z,36.30
2019-03-27T08:04:24.427Z,33.77
2019-03-27T08:06:55.115Z,33.10
2019-03-27T08:09:25.925Z,36.53
2019-03-27T08:11:56.843Z,36.20
2019-03-27T08:14:27.558Z,34.63
2019-03-27T08:16:58.430Z,33.60
2019-03-27T08:19:27.785Z,33.38
2019-03-27T08:21:58.310Z,29.47
2019-03-27T08:24:28.934Z,34.50
2019-03-27T08:26:59.294Z,33.85
2019-03-27T08:39:27.337Z,23.27
2019-03-27T08:41:57.713Z,25.30
2019-03-27T08:44:27.936Z,21.33
2019-03-27T08:46:58.631Z,17.10
2019-03-27T08:49:29.772Z,18.83
2019-03-27T08:52:00.304Z,26.50
2019-03-27T08:54:31.198Z,18.20
2019-03-27T08:57:01.699Z,21.50
2019-03-27T09:07:01.475Z,11.80
2019-03-27T09:09:32.032Z,14.53
2019-03-27T09:12:02.555Z,13.37
2019-03-27T09:14:33.352Z,15.20
2019-03-27T09:17:03.838Z,16.83
2019-03-27T09:19:36.134Z,16.10
2019-03-27T09:22:06.503Z,16.10
2019-03-27T09:24:37.225Z,15.40
2019-03-27T09:27:07.701Z,21.50
2019-03-27T09:29:38.407Z,10.80
2019-03-27T09:42:05.702Z,8.37
2019-03-27T09:44:36.816Z,9.10
2019-03-27T09:47:07.577Z,12.15
2019-03-27T09:49:49.008Z,12.10
2019-03-27T09:52:10.282Z,9.73
2019-03-27T09:54:40.935Z,10.50
2019-03-27T09:57:11.733Z,11.40
2019-03-27T09:59:42.711Z,13.60
2019-03-27T10:02:13.252Z,15.00
2019-03-27T10:04:43.983Z,12.90
2019-03-27T10:07:14.658Z,12.70
2019-03-27T10:09:45.583Z,10.23
2019-03-27T10:12:16.240Z,12.63
2019-03-27T10:14:47.709Z,12.70
2019-03-27T10:17:18.192Z,11.67
2019-03-27T10:20:02.572Z,8.40
2019-03-27T10:22:20.607Z,16.07
2019-03-27T10:24:51.076Z,9.77
2019-03-27T10:27:21.414Z,9.90
2019-03-27T10:29:52.580Z,11.30
2019-03-27T10:32:23.313Z,12.50
2019-03-27T10:34:53.744Z,8.80
2019-03-27T10:37:24.204Z,8.27
2019-03-27T10:39:54.710Z,15.30
2019-03-27T10:42:25.250Z,8.90
2019-03-27T10:44:55.632Z,10.77
2019-03-27T10:47:26.138Z,9.13
2019-03-27T10:49:56.717Z,9.10
2019-03-27T10:52:27.601Z,14.27
2019-03-27T10:54:58.410Z,10.10
2019-03-27T10:57:28.896Z,9.53
2019-03-27T10:59:59.477Z,8.80
2019-03-27T11:02:30.085Z,12.03
2019-03-27T11:05:01.037Z,11.77
2019-03-27T11:07:31.975Z,13.23
2019-03-27T11:10:02.287Z,12.63
2019-03-27T11:12:33.144Z,10.83
2019-03-27T11:15:03.691Z,11.83
2019-03-27T11:17:34.662Z,17.30
2019-03-27T11:20:05.286Z,16.37
2019-03-27T11:22:36.522Z,10.27
2019-03-27T11:25:07.310Z,14.60
2019-03-27T11:27:37.812Z,14.85
2019-03-27T11:32:37.842Z,11.75
2019-03-27T11:35:08.676Z,12.60
2019-03-27T11:40:08.565Z,16.70
2019-03-27T11:50:09.800Z,7.60
2019-03-27T12:07:36.117Z,9.20
2019-03-27T12:10:07.497Z,8.70
2019-03-27T15:49:09.228Z,16.45
2019-03-27T16:43:54.058Z,10.90
2019-03-27T16:48:53.658Z,13.50
2019-03-27T16:51:23.864Z,11.50
2019-03-27T16:53:54.483Z,14.00
2019-03-27T16:56:24.884Z,8.40
2019-03-27T16:58:55.517Z,9.23
2019-03-27T17:01:25.846Z,7.43
2019-03-27T17:03:55.306Z,10.70
2019-03-27T17:06:25.657Z,12.00
2019-03-27T17:08:56.101Z,14.23
2019-03-27T17:11:26.953Z,10.20
2019-03-27T17:16:26.794Z,14.00
2019-03-27T17:21:26.518Z,8.90
2019-03-27T17:26:26.076Z,16.70
2019-03-27T17:28:56.424Z,14.70
2019-03-27T17:31:27.181Z,12.03
2019-03-27T17:33:57.545Z,20.43
2019-03-27T17:36:28.327Z,10.77
2019-03-27T17:38:58.596Z,13.27
2019-03-27T17:41:28.956Z,13.53
2019-03-27T17:43:59.156Z,10.13
2019-03-27T17:46:28.519Z,10.73
2019-03-27T17:48:58.225Z,11.03
2019-03-27T17:51:27.615Z,16.20
2019-03-27T17:53:57.193Z,12.80
2019-03-27T17:56:26.551Z,16.87
2019-03-27T17:58:56.140Z,13.07
2019-03-27T18:01:25.488Z,13.57
2019-03-27T18:03:55.164Z,11.73
2019-03-27T18:06:24.857Z,19.13
2019-03-27T18:08:54.049Z,13.87
2019-03-27T18:11:23.439Z,11.60
2019-03-27T18:13:52.724Z,10.40
2019-03-27T18:16:22.069Z,12.33
2019-03-27T18:18:51.442Z,15.80
2019-03-27T18:21:21.455Z,10.17
2019-03-27T18:23:50.981Z,24.87
2019-03-27T18:26:20.319Z,13.00
2019-03-27T18:28:49.701Z,13.60
2019-03-27T18:31:19.138Z,11.47
2019-03-27T18:33:48.567Z,11.20
2019-03-27T18:36:17.886Z,15.63
2019-03-27T18:38:47.372Z,13.77
2019-03-27T18:41:16.772Z,17.00
2019-03-27T18:43:45.938Z,16.30
2019-03-27T18:46:15.599Z,15.57
2019-03-27T18:48:44.965Z,13.83
2019-03-27T18:51:14.367Z,13.60
2019-03-27T18:53:44.072Z,18.20
2019-03-27T18:56:13.392Z,14.07
2019-03-27T18:58:42.596Z,14.60
2019-03-27T19:01:11.887Z,11.93
2019-03-27T19:03:41.587Z,13.30
2019-03-27T19:06:11.460Z,16.23
2019-03-27T19:08:40.858Z,14.40
2019-03-27T19:11:10.219Z,14.93
2019-03-27T19:13:40.006Z,17.17
2019-03-27T19:16:09.508Z,15.03
2019-03-27T19:18:38.907Z,13.97
2019-03-27T19:21:08.928Z,12.30
2019-03-27T19:23:38.233Z,14.83
2019-03-27T19:26:07.623Z,11.73
2019-03-27T19:28:36.962Z,16.70
2019-03-27T19:31:06.319Z,11.70
2019-03-27T19:33:36.136Z,13.57
2019-03-27T19:36:05.789Z,13.83
2019-03-27T19:38:35.475Z,18.20
2019-03-27T19:41:05.283Z,16.97
2019-03-27T19:43:34.985Z,18.07
2019-03-27T19:46:05.016Z,22.53
2019-03-27T19:48:34.456Z,15.83
2019-03-27T19:51:03.800Z,14.23
2019-03-27T19:53:33.456Z,14.37
2019-03-27T19:56:02.901Z,17.10
2019-03-27T19:58:32.223Z,17.47
2019-03-27T20:01:02.139Z,16.17
2019-03-27T20:03:34.491Z,16.87
2019-03-27T20:06:03.277Z,18.30
2019-03-27T20:08:33.112Z,18.17
2019-03-27T20:11:02.790Z,19.03
2019-03-27T20:13:32.107Z,15.30
2019-03-27T20:16:01.318Z,16.70
2019-03-27T20:18:31.020Z,19.17
2019-03-27T20:21:00.728Z,21.13
2019-03-27T20:23:30.434Z,21.23
2019-03-27T20:26:00.262Z,16.40
2019-03-27T20:28:29.823Z,23.20
2019-03-27T20:30:59.933Z,16.43
2019-03-27T20:33:29.784Z,16.93
2019-03-27T20:35:59.186Z,23.10
2019-03-27T20:38:28.349Z,18.20
2019-03-27T20:40:58.116Z,20.33
2019-03-27T20:43:27.463Z,14.90
2019-03-27T20:45:57.066Z,20.53
2019-03-27T20:48:27.032Z,19.60
2019-03-27T20:50:56.904Z,19.00
2019-03-27T20:53:26.636Z,21.80
2019-03-27T20:55:56.015Z,19.63
2019-03-27T20:58:25.317Z,19.40
2019-03-27T21:00:55.059Z,20.17
2019-03-27T21:03:24.550Z,19.20
2019-03-27T21:05:54.706Z,18.57
2019-03-27T21:08:24.267Z,22.30
2019-03-27T21:10:54.318Z,20.63
2019-03-27T21:13:23.575Z,26.17
2019-03-27T21:15:53.323Z,20.53
2019-03-27T21:18:22.795Z,28.97
2019-03-27T21:20:52.088Z,23.93
2019-03-27T21:23:21.361Z,20.70
2019-03-27T21:25:51.204Z,23.20
2019-03-27T21:28:20.675Z,20.33
2019-03-27T21:30:51.433Z,20.63
2019-03-27T21:33:21.014Z,22.90
2019-03-27T21:35:50.423Z,21.57
2019-03-27T21:38:20.036Z,21.00
2019-03-27T21:40:50.083Z,21.87
2019-03-27T21:43:19.587Z,22.97
2019-03-27T21:45:49.477Z,19.73
2019-03-27T21:48:19.174Z,18.70
2019-03-27T21:50:49.316Z,20.30
2019-03-27T21:53:19.038Z,18.70
2019-03-27T21:55:48.850Z,23.47
2019-03-27T21:58:18.369Z,21.60
2019-03-27T22:00:47.959Z,17.63
2019-03-27T22:03:17.901Z,24.10
2019-03-27T22:05:47.249Z,16.00
2019-03-27T22:08:17.363Z,20.43
2019-03-27T22:10:46.674Z,27.67
2019-03-27T22:13:16.041Z,20.80
2019-03-27T22:15:45.855Z,21.77
2019-03-27T22:18:15.365Z,21.00
2019-03-27T22:20:44.686Z,17.83
2019-03-27T22:23:14.052Z,23.67
2019-03-27T22:25:44.102Z,28.23
2019-03-27T22:28:15.299Z,18.97
2019-03-27T22:30:44.427Z,20.30
2019-03-27T22:33:13.701Z,19.20
2019-03-27T22:35:43.793Z,23.67
2019-03-27T22:38:13.116Z,19.37
2019-03-27T22:40:42.530Z,19.93
2019-03-27T22:43:12.112Z,25.70
2019-03-27T22:45:41.808Z,20.93
2019-03-27T22:48:11.273Z,24.93
2019-03-27T22:50:40.461Z,22.30
2019-03-27T22:53:10.031Z,22.37
2019-03-27T22:55:49.649Z,23.53
2019-03-27T22:58:12.972Z,23.10
2019-03-27T23:00:49.566Z,23.97
2019-03-27T23:03:19.037Z,25.27
2019-03-27T23:05:48.417Z,22.40
2019-03-27T23:08:17.638Z,22.50
2019-03-27T23:10:47.644Z,22.57
2019-03-27T23:13:17.813Z,22.00
2019-03-27T23:15:47.672Z,20.30
2019-03-27T23:18:16.972Z,20.07
2019-03-27T23:20:46.251Z,23.87
2019-03-27T23:23:15.663Z,20.00
2019-03-27T23:25:45.693Z,22.67
2019-03-27T23:28:15.626Z,18.57
2019-03-27T23:30:45.204Z,23.77
2019-03-27T23:33:15.221Z,25.03
2019-03-27T23:35:44.810Z,23.17
2019-03-27T23:38:14.249Z,28.20
2019-03-27T23:40:43.980Z,22.80
2019-03-27T23:43:13.459Z,22.53
2019-03-27T23:45:43.549Z,24.83
2019-03-27T23:48:13.592Z,26.43
2019-03-27T23:50:42.951Z,25.60
2019-03-27T23:53:12.205Z,24.67
2019-03-27T23:55:41.965Z,21.07
2019-03-27T23:58:11.601Z,20.43
